sensor_id;sensor_type;location;lat;lon;timestamp;P1;durP1;ratioP1;P2;durP2;ratioP2
10811;SDS011;5458;51.496;7.334;2023-05-09T00:01:36;11.63;;;10.55;;
10811;SDS011;5458;51.496;7.334;2023-05-09T00:04:03;12.07;;;10.98;;
10811;SDS011;5458;51.496;7.334;2023-05-09T00:06:29;11.57;;;10.35;;
10811;SDS011;5458;51.496;7.334;2023-05-09T00:08:56;10.38;;;9.27;;
10811;SDS011;5458;51.496;7.334;2023-05-09T00:11:21;12.57;;;9.90;;
10811;SDS011;5458;51.496;7.334;2023-05-09T00:13:47;12.63;;;11.32;;
10811;SDS011;5458;51.496;7.334;2023-05-09T00:16:14;11.90;;;10.80;;
10811;SDS011;5458;51.496;7.334;2023-05-09T00:18:41;12.20;;;10.88;;
10811;SDS011;5458;51.496;7.334;2023-05-09T00:21:07;11.65;;;9.85;;
10811;SDS011;5458;51.496;7.334;2023-05-09T00:23:34;11.20;;;10.10;;
10811;SDS011;5458;51.496;7.334;2023-05-09T00:26:01;11.85;;;10.68;;
10811;SDS011;5458;51.496;7.334;2023-05-09T00:28:26;12.82;;;11.57;;
10811;SDS011;5458;51.496;7.334;2023-05-09T00:30:52;11.57;;;10.38;;
10811;SDS011;5458;51.496;7.334;2023-05-09T00:33:18;12.65;;;11.38;;
10811;SDS011;5458;51.496;7.334;2023-05-09T00:35:44;15.73;;;11.48;;
10811;SDS011;5458;51.496;7.334;2023-05-09T00:38:10;14.88;;;11.10;;
10811;SDS011;5458;51.496;7.334;2023-05-09T00:40:36;13.30;;;11.13;;
10811;SDS011;5458;51.496;7.334;2023-05-09T00:43:02;13.30;;;11.10;;
10811;SDS011;5458;51.496;7.334;2023-05-09T00:45:28;12.27;;;11.07;;
10811;SDS011;5458;51.496;7.334;2023-05-09T00:47:55;12.23;;;10.98;;
10811;SDS011;5458;51.496;7.334;2023-05-09T00:50:21;12.10;;;10.73;;
10811;SDS011;5458;51.496;7.334;2023-05-09T00:52:50;12.15;;;10.88;;
10811;SDS011;5458;51.496;7.334;2023-05-09T00:55:16;13.75;;;11.70;;
10811;SDS011;5458;51.496;7.334;2023-05-09T00:57:42;12.15;;;10.93;;
10811;SDS011;5458;51.496;7.334;2023-05-09T01:00:08;11.77;;;10.57;;
10811;SDS011;5458;51.496;7.334;2023-05-09T01:02:40;13.75;;;11.77;;
10811;SDS011;5458;51.496;7.334;2023-05-09T01:05:07;11.32;;;10.15;;
10811;SDS011;5458;51.496;7.334;2023-05-09T01:37:51;11.80;;;10.48;;
10811;SDS011;5458;51.496;7.334;2023-05-09T01:40:19;12.18;;;10.98;;
10811;SDS011;5458;51.496;7.334;2023-05-09T01:42:51;12.80;;;11.25;;
10811;SDS011;5458;51.496;7.334;2023-05-09T01:45:24;12.27;;;10.57;;
10811;SDS011;5458;51.496;7.334;2023-05-09T01:47:51;12.35;;;11.15;;
10811;SDS011;5458;51.496;7.334;2023-05-09T01:50:18;12.98;;;11.68;;
10811;SDS011;5458;51.496;7.334;2023-05-09T01:52:45;13.27;;;11.88;;
10811;SDS011;5458;51.496;7.334;2023-05-09T01:55:13;12.15;;;10.85;;
10811;SDS011;5458;51.496;7.334;2023-05-09T01:57:41;13.00;;;11.15;;
10811;SDS011;5458;51.496;7.334;2023-05-09T02:00:08;12.20;;;10.95;;
10811;SDS011;5458;51.496;7.334;2023-05-09T02:02:34;11.25;;;10.15;;
10811;SDS011;5458;51.496;7.334;2023-05-09T02:05:01;12.57;;;11.32;;
10811;SDS011;5458;51.496;7.334;2023-05-09T02:07:27;12.40;;;11.20;;
10811;SDS011;5458;51.496;7.334;2023-05-09T02:09:53;12.82;;;11.50;;
10811;SDS011;5458;51.496;7.334;2023-05-09T02:12:20;13.05;;;11.75;;
10811;SDS011;5458;51.496;7.334;2023-05-09T02:14:47;11.77;;;10.63;;
10811;SDS011;5458;51.496;7.334;2023-05-09T02:17:13;12.80;;;11.60;;
10811;SDS011;5458;51.496;7.334;2023-05-09T02:19:41;12.45;;;11.25;;
10811;SDS011;5458;51.496;7.334;2023-05-09T02:22:07;13.27;;;11.90;;
10811;SDS011;5458;51.496;7.334;2023-05-09T02:24:33;12.57;;;11.38;;
10811;SDS011;5458;51.496;7.334;2023-05-09T02:27:00;14.52;;;12.40;;
10811;SDS011;5458;51.496;7.334;2023-05-09T02:29:32;13.68;;;12.27;;
10811;SDS011;5458;51.496;7.334;2023-05-09T02:32:04;14.70;;;12.35;;
10811;SDS011;5458;51.496;7.334;2023-05-09T02:34:34;13.65;;;12.23;;
10811;SDS011;5458;51.496;7.334;2023-05-09T02:37:01;14.63;;;13.07;;
10811;SDS011;5458;51.496;7.334;2023-05-09T02:39:27;14.13;;;12.70;;
10811;SDS011;5458;51.496;7.334;2023-05-09T02:41:53;14.25;;;12.63;;
10811;SDS011;5458;51.496;7.334;2023-05-09T02:44:19;15.70;;;12.45;;
10811;SDS011;5458;51.496;7.334;2023-05-09T02:46:44;14.80;;;13.30;;
10811;SDS011;5458;51.496;7.334;2023-05-09T02:49:10;14.80;;;13.30;;
10811;SDS011;5458;51.496;7.334;2023-05-09T02:51:36;15.07;;;12.68;;
10811;SDS011;5458;51.496;7.334;2023-05-09T02:54:01;13.18;;;11.77;;
10811;SDS011;5458;51.496;7.334;2023-05-09T02:56:27;15.57;;;12.35;;
10811;SDS011;5458;51.496;7.334;2023-05-09T02:58:52;14.07;;;12.52;;
10811;SDS011;5458;51.496;7.334;2023-05-09T03:01:18;14.55;;;13.05;;
10811;SDS011;5458;51.496;7.334;2023-05-09T03:03:44;20.08;;;13.75;;
10811;SDS011;5458;51.496;7.334;2023-05-09T03:06:10;20.00;;;14.00;;
10811;SDS011;5458;51.496;7.334;2023-05-09T03:08:35;18.83;;;14.52;;
10811;SDS011;5458;51.496;7.334;2023-05-09T03:11:01;16.50;;;14.80;;
10811;SDS011;5458;51.496;7.334;2023-05-09T03:13:26;16.80;;;14.55;;
10811;SDS011;5458;51.496;7.334;2023-05-09T03:15:52;16.67;;;13.43;;
10811;SDS011;5458;51.496;7.334;2023-05-09T03:18:17;19.30;;;14.82;;
10811;SDS011;5458;51.496;7.334;2023-05-09T03:20:43;17.13;;;14.63;;
10811;SDS011;5458;51.496;7.334;2023-05-09T03:23:08;19.65;;;15.45;;
10811;SDS011;5458;51.496;7.334;2023-05-09T03:25:34;19.17;;;15.38;;
10811;SDS011;5458;51.496;7.334;2023-05-09T03:28:00;18.52;;;15.18;;
10811;SDS011;5458;51.496;7.334;2023-05-09T03:30:25;15.82;;;13.88;;
10811;SDS011;5458;51.496;7.334;2023-05-09T03:32:51;15.98;;;14.35;;
10811;SDS011;5458;51.496;7.334;2023-05-09T03:35:16;18.92;;;14.75;;
10811;SDS011;5458;51.496;7.334;2023-05-09T03:37:42;16.60;;;13.90;;
10811;SDS011;5458;51.496;7.334;2023-05-09T03:40:08;19.70;;;15.45;;
10811;SDS011;5458;51.496;7.334;2023-05-09T03:42:34;17.50;;;15.13;;
10811;SDS011;5458;51.496;7.334;2023-05-09T03:44:59;17.73;;;15.85;;
10811;SDS011;5458;51.496;7.334;2023-05-09T03:47:25;16.83;;;15.02;;
10811;SDS011;5458;51.496;7.334;2023-05-09T03:49:51;19.80;;;15.27;;
10811;SDS011;5458;51.496;7.334;2023-05-09T03:52:17;19.33;;;16.33;;
10811;SDS011;5458;51.496;7.334;2023-05-09T03:54:43;18.13;;;15.23;;
10811;SDS011;5458;51.496;7.334;2023-05-09T03:57:08;18.42;;;15.50;;
10811;SDS011;5458;51.496;7.334;2023-05-09T03:59:34;17.52;;;15.40;;
10811;SDS011;5458;51.496;7.334;2023-05-09T04:02:00;18.70;;;16.55;;
10811;SDS011;5458;51.496;7.334;2023-05-09T04:04:25;18.73;;;16.65;;
10811;SDS011;5458;51.496;7.334;2023-05-09T04:06:51;20.73;;;17.48;;
10811;SDS011;5458;51.496;7.334;2023-05-09T04:09:17;19.20;;;16.98;;
10811;SDS011;5458;51.496;7.334;2023-05-09T04:11:42;19.13;;;16.55;;
10811;SDS011;5458;51.496;7.334;2023-05-09T04:14:08;20.58;;;17.65;;
10811;SDS011;5458;51.496;7.334;2023-05-09T04:16:33;21.60;;;17.95;;
10811;SDS011;5458;51.496;7.334;2023-05-09T04:18:59;21.10;;;17.83;;
10811;SDS011;5458;51.496;7.334;2023-05-09T04:21:25;22.45;;;18.15;;
10811;SDS011;5458;51.496;7.334;2023-05-09T04:23:50;21.08;;;17.77;;
10811;SDS011;5458;51.496;7.334;2023-05-09T04:26:16;19.40;;;17.20;;
10811;SDS011;5458;51.496;7.334;2023-05-09T04:28:42;18.20;;;16.27;;
10811;SDS011;5458;51.496;7.334;2023-05-09T04:31:08;19.52;;;16.80;;
10811;SDS011;5458;51.496;7.334;2023-05-09T04:33:33;20.42;;;17.70;;
10811;SDS011;5458;51.496;7.334;2023-05-09T04:36:00;23.75;;;18.45;;
10811;SDS011;5458;51.496;7.334;2023-05-09T04:38:26;22.60;;;18.95;;
10811;SDS011;5458;51.496;7.334;2023-05-09T04:40:51;22.13;;;17.73;;
10811;SDS011;5458;51.496;7.334;2023-05-09T04:43:17;19.95;;;17.65;;
10811;SDS011;5458;51.496;7.334;2023-05-09T04:45:43;20.95;;;18.52;;
10811;SDS011;5458;51.496;7.334;2023-05-09T04:48:10;22.35;;;17.88;;
10811;SDS011;5458;51.496;7.334;2023-05-09T04:50:35;24.23;;;19.65;;
10811;SDS011;5458;51.496;7.334;2023-05-09T04:53:01;22.48;;;19.60;;
10811;SDS011;5458;51.496;7.334;2023-05-09T04:55:27;20.42;;;18.23;;
10811;SDS011;5458;51.496;7.334;2023-05-09T04:57:52;21.85;;;18.60;;
10811;SDS011;5458;51.496;7.334;2023-05-09T05:00:18;21.52;;;18.33;;
10811;SDS011;5458;51.496;7.334;2023-05-09T05:02:43;22.50;;;18.67;;
10811;SDS011;5458;51.496;7.334;2023-05-09T05:05:09;23.42;;;19.58;;
10811;SDS011;5458;51.496;7.334;2023-05-09T05:07:36;20.38;;;18.20;;
10811;SDS011;5458;51.496;7.334;2023-05-09T05:10:01;22.30;;;18.77;;
10811;SDS011;5458;51.496;7.334;2023-05-09T05:12:27;23.40;;;19.33;;
10811;SDS011;5458;51.496;7.334;2023-05-09T05:14:52;22.63;;;18.65;;
10811;SDS011;5458;51.496;7.334;2023-05-09T05:17:18;21.92;;;18.67;;
10811;SDS011;5458;51.496;7.334;2023-05-09T05:19:43;26.13;;;19.75;;
10811;SDS011;5458;51.496;7.334;2023-05-09T05:22:09;20.20;;;18.08;;
10811;SDS011;5458;51.496;7.334;2023-05-09T05:24:34;21.45;;;19.13;;
10811;SDS011;5458;51.496;7.334;2023-05-09T05:27:00;21.13;;;18.48;;
10811;SDS011;5458;51.496;7.334;2023-05-09T05:29:26;23.65;;;19.48;;
10811;SDS011;5458;51.496;7.334;2023-05-09T05:31:51;21.02;;;18.20;;
10811;SDS011;5458;51.496;7.334;2023-05-09T05:34:17;21.77;;;18.88;;
10811;SDS011;5458;51.496;7.334;2023-05-09T05:36:42;22.38;;;18.83;;
10811;SDS011;5458;51.496;7.334;2023-05-09T05:39:08;20.35;;;18.02;;
10811;SDS011;5458;51.496;7.334;2023-05-09T05:41:33;21.95;;;17.33;;
10811;SDS011;5458;51.496;7.334;2023-05-09T05:43:59;21.98;;;17.13;;
10811;SDS011;5458;51.496;7.334;2023-05-09T05:46:24;19.63;;;17.52;;
10811;SDS011;5458;51.496;7.334;2023-05-09T05:48:50;20.15;;;17.20;;
10811;SDS011;5458;51.496;7.334;2023-05-09T05:51:16;20.50;;;18.13;;
10811;SDS011;5458;51.496;7.334;2023-05-09T05:53:41;21.15;;;18.73;;
10811;SDS011;5458;51.496;7.334;2023-05-09T05:56:07;22.05;;;17.73;;
10811;SDS011;5458;51.496;7.334;2023-05-09T05:58:32;20.85;;;18.17;;
10811;SDS011;5458;51.496;7.334;2023-05-09T06:00:58;19.08;;;16.85;;
10811;SDS011;5458;51.496;7.334;2023-05-09T06:03:23;20.83;;;18.55;;
10811;SDS011;5458;51.496;7.334;2023-05-09T06:05:49;20.83;;;18.42;;
10811;SDS011;5458;51.496;7.334;2023-05-09T06:08:15;23.08;;;18.35;;
10811;SDS011;5458;51.496;7.334;2023-05-09T06:10:40;21.35;;;17.27;;
10811;SDS011;5458;51.496;7.334;2023-05-09T06:13:06;21.73;;;17.85;;
10811;SDS011;5458;51.496;7.334;2023-05-09T06:15:31;22.58;;;19.27;;
10811;SDS011;5458;51.496;7.334;2023-05-09T06:17:57;21.60;;;17.52;;
10811;SDS011;5458;51.496;7.334;2023-05-09T06:20:23;21.13;;;17.80;;
10811;SDS011;5458;51.496;7.334;2023-05-09T06:22:49;21.48;;;18.73;;
10811;SDS011;5458;51.496;7.334;2023-05-09T06:25:15;22.02;;;17.63;;
10811;SDS011;5458;51.496;7.334;2023-05-09T06:27:40;21.88;;;17.45;;
10811;SDS011;5458;51.496;7.334;2023-05-09T06:30:06;19.30;;;17.33;;
10811;SDS011;5458;51.496;7.334;2023-05-09T06:32:32;23.00;;;17.38;;
10811;SDS011;5458;51.496;7.334;2023-05-09T06:34:58;18.50;;;16.60;;
10811;SDS011;5458;51.496;7.334;2023-05-09T06:37:23;22.20;;;17.33;;
10811;SDS011;5458;51.496;7.334;2023-05-09T06:39:49;18.85;;;16.85;;
10811;SDS011;5458;51.496;7.334;2023-05-09T06:42:14;17.70;;;15.50;;
10811;SDS011;5458;51.496;7.334;2023-05-09T06:44:40;18.75;;;16.48;;
10811;SDS011;5458;51.496;7.334;2023-05-09T06:47:07;17.70;;;15.65;;
10811;SDS011;5458;51.496;7.334;2023-05-09T06:49:33;17.02;;;15.13;;
10811;SDS011;5458;51.496;7.334;2023-05-09T06:51:59;17.98;;;16.08;;
10811;SDS011;5458;51.496;7.334;2023-05-09T06:54:24;17.08;;;15.45;;
10811;SDS011;5458;51.496;7.334;2023-05-09T06:56:50;18.33;;;14.40;;
10811;SDS011;5458;51.496;7.334;2023-05-09T06:59:16;18.38;;;15.68;;
10811;SDS011;5458;51.496;7.334;2023-05-09T07:01:42;19.58;;;15.68;;
10811;SDS011;5458;51.496;7.334;2023-05-09T07:04:07;20.48;;;16.75;;
10811;SDS011;5458;51.496;7.334;2023-05-09T07:06:33;18.50;;;15.27;;
10811;SDS011;5458;51.496;7.334;2023-05-09T07:08:58;16.90;;;15.10;;
10811;SDS011;5458;51.496;7.334;2023-05-09T07:11:24;17.10;;;14.52;;
10811;SDS011;5458;51.496;7.334;2023-05-09T07:13:49;16.73;;;15.02;;
10811;SDS011;5458;51.496;7.334;2023-05-09T07:16:15;16.58;;;14.90;;
10811;SDS011;5458;51.496;7.334;2023-05-09T07:18:42;15.95;;;14.25;;
10811;SDS011;5458;51.496;7.334;2023-05-09T07:21:08;18.42;;;15.02;;
10811;SDS011;5458;51.496;7.334;2023-05-09T07:23:34;15.57;;;13.95;;
10811;SDS011;5458;51.496;7.334;2023-05-09T07:25:59;15.15;;;13.60;;
10811;SDS011;5458;51.496;7.334;2023-05-09T07:28:25;15.50;;;12.60;;
10811;SDS011;5458;51.496;7.334;2023-05-09T07:30:51;15.73;;;13.02;;
10811;SDS011;5458;51.496;7.334;2023-05-09T07:33:19;15.05;;;13.35;;
10811;SDS011;5458;51.496;7.334;2023-05-09T07:35:45;16.92;;;13.43;;
10811;SDS011;5458;51.496;7.334;2023-05-09T07:38:10;13.07;;;11.77;;
10811;SDS011;5458;51.496;7.334;2023-05-09T07:40:36;14.63;;;11.93;;
10811;SDS011;5458;51.496;7.334;2023-05-09T07:43:02;14.00;;;12.50;;
10811;SDS011;5458;51.496;7.334;2023-05-09T07:45:28;13.57;;;10.98;;
10811;SDS011;5458;51.496;7.334;2023-05-09T07:47:53;13.20;;;11.70;;
10811;SDS011;5458;51.496;7.334;2023-05-09T07:50:19;12.32;;;10.80;;
10811;SDS011;5458;51.496;7.334;2023-05-09T07:52:47;13.73;;;12.30;;
10811;SDS011;5458;51.496;7.334;2023-05-09T07:55:13;12.13;;;10.88;;
10811;SDS011;5458;51.496;7.334;2023-05-09T07:57:38;12.57;;;10.57;;
10811;SDS011;5458;51.496;7.334;2023-05-09T08:00:04;11.23;;;10.07;;
10811;SDS011;5458;51.496;7.334;2023-05-09T08:02:31;11.15;;;9.98;;
10811;SDS011;5458;51.496;7.334;2023-05-09T08:04:56;11.75;;;10.65;;
10811;SDS011;5458;51.496;7.334;2023-05-09T08:07:22;11.10;;;9.93;;
10811;SDS011;5458;51.496;7.334;2023-05-09T08:09:47;11.18;;;9.38;;
10811;SDS011;5458;51.496;7.334;2023-05-09T08:12:13;9.85;;;8.85;;
10811;SDS011;5458;51.496;7.334;2023-05-09T08:14:39;10.73;;;9.73;;
10811;SDS011;5458;51.496;7.334;2023-05-09T08:17:05;10.68;;;9.63;;
10811;SDS011;5458;51.496;7.334;2023-05-09T08:19:30;10.10;;;9.20;;
10811;SDS011;5458;51.496;7.334;2023-05-09T08:21:56;10.70;;;9.60;;
10811;SDS011;5458;51.496;7.334;2023-05-09T08:24:22;9.52;;;8.63;;
10811;SDS011;5458;51.496;7.334;2023-05-09T08:26:47;10.15;;;9.10;;
10811;SDS011;5458;51.496;7.334;2023-05-09T08:29:13;10.70;;;8.77;;
10811;SDS011;5458;51.496;7.334;2023-05-09T08:31:38;9.50;;;8.50;;
10811;SDS011;5458;51.496;7.334;2023-05-09T08:34:04;9.00;;;8.10;;
10811;SDS011;5458;51.496;7.334;2023-05-09T08:36:30;11.40;;;9.63;;
10811;SDS011;5458;51.496;7.334;2023-05-09T08:38:56;8.90;;;8.05;;
10811;SDS011;5458;51.496;7.334;2023-05-09T08:41:25;13.48;;;8.73;;
10811;SDS011;5458;51.496;7.334;2023-05-09T08:43:54;9.95;;;8.95;;
10811;SDS011;5458;51.496;7.334;2023-05-09T08:46:23;10.10;;;9.10;;
10811;SDS011;5458;51.496;7.334;2023-05-09T08:48:57;8.90;;;8.05;;
10811;SDS011;5458;51.496;7.334;2023-05-09T08:51:24;9.80;;;8.90;;
10811;SDS011;5458;51.496;7.334;2023-05-09T08:53:51;9.05;;;8.15;;
10811;SDS011;5458;51.496;7.334;2023-05-09T08:56:17;9.57;;;8.57;;
10811;SDS011;5458;51.496;7.334;2023-05-09T08:58:43;11.70;;;9.43;;
10811;SDS011;5458;51.496;7.334;2023-05-09T09:01:10;8.93;;;8.00;;
10811;SDS011;5458;51.496;7.334;2023-05-09T09:03:37;7.88;;;7.13;;
10811;SDS011;5458;51.496;7.334;2023-05-09T09:06:05;7.35;;;6.65;;
10811;SDS011;5458;51.496;7.334;2023-05-09T09:08:33;7.97;;;7.18;;
10811;SDS011;5458;51.496;7.334;2023-05-09T09:10:59;7.80;;;6.72;;
10811;SDS011;5458;51.496;7.334;2023-05-09T09:13:25;6.35;;;5.57;;
10811;SDS011;5458;51.496;7.334;2023-05-09T09:15:52;8.20;;;6.20;;
10811;SDS011;5458;51.496;7.334;2023-05-09T09:18:22;5.78;;;5.25;;
10811;SDS011;5458;51.496;7.334;2023-05-09T09:20:55;8.27;;;5.93;;
10811;SDS011;5458;51.496;7.334;2023-05-09T09:23:24;6.00;;;5.50;;
10811;SDS011;5458;51.496;7.334;2023-05-09T09:25:57;6.88;;;6.28;;
10811;SDS011;5458;51.496;7.334;2023-05-09T09:28:24;6.25;;;5.65;;
10811;SDS011;5458;51.496;7.334;2023-05-09T09:30:50;6.55;;;5.40;;
10811;SDS011;5458;51.496;7.334;2023-05-09T09:33:19;7.93;;;5.85;;
10811;SDS011;5458;51.496;7.334;2023-05-09T09:35:46;6.80;;;5.53;;
10811;SDS011;5458;51.496;7.334;2023-05-09T09:38:19;5.10;;;4.70;;
10811;SDS011;5458;51.496;7.334;2023-05-09T09:40:55;5.55;;;5.05;;
10811;SDS011;5458;51.496;7.334;2023-05-09T09:43:28;4.75;;;4.22;;
10811;SDS011;5458;51.496;7.334;2023-05-09T09:45:55;5.43;;;4.93;;
10811;SDS011;5458;51.496;7.334;2023-05-09T09:48:25;5.63;;;4.57;;
10811;SDS011;5458;51.496;7.334;2023-05-09T09:51:06;4.43;;;4.13;;
10811;SDS011;5458;51.496;7.334;2023-05-09T09:53:37;5.30;;;4.55;;
10811;SDS011;5458;51.496;7.334;2023-05-09T09:56:04;4.55;;;4.15;;
10811;SDS011;5458;51.496;7.334;2023-05-09T09:58:29;5.13;;;4.35;;
10811;SDS011;5458;51.496;7.334;2023-05-09T10:01:05;4.70;;;4.30;;
10811;SDS011;5458;51.496;7.334;2023-05-09T10:03:40;5.32;;;4.38;;
10811;SDS011;5458;51.496;7.334;2023-05-09T10:06:10;5.15;;;4.65;;
10811;SDS011;5458;51.496;7.334;2023-05-09T10:08:37;5.28;;;4.35;;
10811;SDS011;5458;51.496;7.334;2023-05-09T10:11:04;5.15;;;4.65;;
10811;SDS011;5458;51.496;7.334;2023-05-09T10:13:29;4.13;;;3.72;;
10811;SDS011;5458;51.496;7.334;2023-05-09T10:15:57;4.13;;;3.72;;
10811;SDS011;5458;51.496;7.334;2023-05-09T10:18:26;4.05;;;3.70;;
10811;SDS011;5458;51.496;7.334;2023-05-09T10:20:52;4.38;;;3.75;;
10811;SDS011;5458;51.496;7.334;2023-05-09T10:23:20;5.13;;;3.67;;
10811;SDS011;5458;51.496;7.334;2023-05-09T10:25:58;4.72;;;3.30;;
10811;SDS011;5458;51.496;7.334;2023-05-09T10:28:30;4.10;;;3.70;;
10811;SDS011;5458;51.496;7.334;2023-05-09T10:31:00;5.20;;;3.90;;
10811;SDS011;5458;51.496;7.334;2023-05-09T10:33:42;4.57;;;3.45;;
10811;SDS011;5458;51.496;7.334;2023-05-09T10:36:14;3.72;;;3.42;;
10811;SDS011;5458;51.496;7.334;2023-05-09T10:38:45;3.70;;;3.20;;
10811;SDS011;5458;51.496;7.334;2023-05-09T10:41:17;4.63;;;3.13;;
10811;SDS011;5458;51.496;7.334;2023-05-09T10:43:45;4.38;;;3.00;;
10811;SDS011;5458;51.496;7.334;2023-05-09T10:46:12;3.17;;;2.88;;
10811;SDS011;5458;51.496;7.334;2023-05-09T10:48:38;3.17;;;2.67;;
10811;SDS011;5458;51.496;7.334;2023-05-09T10:51:04;2.95;;;2.65;;
10811;SDS011;5458;51.496;7.334;2023-05-09T10:53:42;3.13;;;2.40;;
10811;SDS011;5458;51.496;7.334;2023-05-09T10:56:31;2.60;;;2.40;;
10811;SDS011;5458;51.496;7.334;2023-05-09T10:58:56;2.80;;;2.30;;
10811;SDS011;5458;51.496;7.334;2023-05-09T11:01:36;4.72;;;2.40;;
10811;SDS011;5458;51.496;7.334;2023-05-09T11:04:09;2.97;;;2.65;;
10811;SDS011;5458;51.496;7.334;2023-05-09T11:09:25;2.30;;;2.10;;
10811;SDS011;5458;51.496;7.334;2023-05-09T11:14:37;3.13;;;2.80;;
10811;SDS011;5458;51.496;7.334;2023-05-09T11:24:49;3.42;;;2.22;;
10811;SDS011;5458;51.496;7.334;2023-05-09T11:27:18;2.60;;;1.83;;
10811;SDS011;5458;51.496;7.334;2023-05-09T11:29:49;2.20;;;1.90;;
10811;SDS011;5458;51.496;7.334;2023-05-09T11:33:04;2.90;;;1.55;;
10811;SDS011;5458;51.496;7.334;2023-05-09T11:35:10;2.28;;;1.85;;
10811;SDS011;5458;51.496;7.334;2023-05-09T11:38:00;4.28;;;2.05;;
10811;SDS011;5458;51.496;7.334;2023-05-09T11:40:28;3.80;;;2.03;;
10811;SDS011;5458;51.496;7.334;2023-05-09T11:42:55;2.20;;;1.77;;
10811;SDS011;5458;51.496;7.334;2023-05-09T11:45:22;1.73;;;1.63;;
10811;SDS011;5458;51.496;7.334;2023-05-09T11:47:50;2.10;;;1.90;;
10811;SDS011;5458;51.496;7.334;2023-05-09T11:50:17;2.75;;;1.98;;
10811;SDS011;5458;51.496;7.334;2023-05-09T11:52:44;2.53;;;1.98;;
10811;SDS011;5458;51.496;7.334;2023-05-09T11:55:17;3.22;;;2.28;;
10811;SDS011;5458;51.496;7.334;2023-05-09T11:57:50;2.40;;;2.13;;
10811;SDS011;5458;51.496;7.334;2023-05-09T12:00:20;2.45;;;2.25;;
10811;SDS011;5458;51.496;7.334;2023-05-09T12:02:47;2.75;;;1.75;;
10811;SDS011;5458;51.496;7.334;2023-05-09T12:05:15;2.10;;;1.90;;
10811;SDS011;5458;51.496;7.334;2023-05-09T12:07:42;2.30;;;2.10;;
10811;SDS011;5458;51.496;7.334;2023-05-09T12:10:09;3.10;;;1.50;;
10811;SDS011;5458;51.496;7.334;2023-05-09T12:12:46;2.00;;;1.90;;
10811;SDS011;5458;51.496;7.334;2023-05-09T12:15:13;2.17;;;1.98;;
10811;SDS011;5458;51.496;7.334;2023-05-09T12:17:41;2.33;;;1.48;;
10811;SDS011;5458;51.496;7.334;2023-05-09T12:20:07;1.55;;;1.45;;
10811;SDS011;5458;51.496;7.334;2023-05-09T12:22:33;4.03;;;2.58;;
10811;SDS011;5458;51.496;7.334;2023-05-09T12:25:03;2.13;;;1.92;;
10811;SDS011;5458;51.496;7.334;2023-05-09T12:27:31;2.65;;;1.77;;
10811;SDS011;5458;51.496;7.334;2023-05-09T12:29:59;2.60;;;1.60;;
10811;SDS011;5458;51.496;7.334;2023-05-09T12:32:25;2.92;;;2.00;;
10811;SDS011;5458;51.496;7.334;2023-05-09T12:34:56;1.92;;;1.83;;
10811;SDS011;5458;51.496;7.334;2023-05-09T12:37:23;2.60;;;2.10;;
10811;SDS011;5458;51.496;7.334;2023-05-09T12:42:30;3.00;;;2.08;;
10811;SDS011;5458;51.496;7.334;2023-05-09T12:44:57;4.40;;;2.53;;
10811;SDS011;5458;51.496;7.334;2023-05-09T12:47:26;4.32;;;2.30;;
10811;SDS011;5458;51.496;7.334;2023-05-09T12:50:02;3.13;;;2.38;;
10811;SDS011;5458;51.496;7.334;2023-05-09T12:52:33;3.92;;;2.50;;
10811;SDS011;5458;51.496;7.334;2023-05-09T12:55:07;2.47;;;1.95;;
10811;SDS011;5458;51.496;7.334;2023-05-09T12:57:35;3.17;;;2.88;;
10811;SDS011;5458;51.496;7.334;2023-05-09T13:00:03;4.07;;;2.53;;
10811;SDS011;5458;51.496;7.334;2023-05-09T13:02:37;4.85;;;2.92;;
10811;SDS011;5458;51.496;7.334;2023-05-09T13:07:55;3.33;;;2.92;;
10811;SDS011;5458;51.496;7.334;2023-05-09T13:10:24;3.28;;;2.85;;
10811;SDS011;5458;51.496;7.334;2023-05-09T13:12:52;7.38;;;2.85;;
10811;SDS011;5458;51.496;7.334;2023-05-09T13:15:19;2.95;;;2.50;;
10811;SDS011;5458;51.496;7.334;2023-05-09T13:17:46;3.60;;;2.83;;
10811;SDS011;5458;51.496;7.334;2023-05-09T13:20:13;2.75;;;2.55;;
10811;SDS011;5458;51.496;7.334;2023-05-09T13:22:38;4.15;;;2.40;;
10811;SDS011;5458;51.496;7.334;2023-05-09T13:25:04;2.72;;;2.40;;
10811;SDS011;5458;51.496;7.334;2023-05-09T13:27:31;3.55;;;2.25;;
10811;SDS011;5458;51.496;7.334;2023-05-09T13:29:57;4.47;;;2.38;;
10811;SDS011;5458;51.496;7.334;2023-05-09T13:32:23;2.63;;;2.28;;
10811;SDS011;5458;51.496;7.334;2023-05-09T13:34:49;5.00;;;2.42;;
10811;SDS011;5458;51.496;7.334;2023-05-09T13:37:15;3.42;;;2.60;;
10811;SDS011;5458;51.496;7.334;2023-05-09T13:39:40;3.50;;;2.80;;
10811;SDS011;5458;51.496;7.334;2023-05-09T13:42:06;3.00;;;2.70;;
10811;SDS011;5458;51.496;7.334;2023-05-09T13:44:32;4.25;;;2.70;;
10811;SDS011;5458;51.496;7.334;2023-05-09T13:46:57;2.65;;;2.45;;
10811;SDS011;5458;51.496;7.334;2023-05-09T13:49:24;2.45;;;2.22;;
10811;SDS011;5458;51.496;7.334;2023-05-09T13:51:51;2.92;;;2.70;;
10811;SDS011;5458;51.496;7.334;2023-05-09T13:54:18;4.55;;;2.25;;
10811;SDS011;5458;51.496;7.334;2023-05-09T13:56:45;2.25;;;1.90;;
10811;SDS011;5458;51.496;7.334;2023-05-09T13:59:11;3.85;;;2.38;;
10811;SDS011;5458;51.496;7.334;2023-05-09T14:01:37;2.78;;;2.58;;
10811;SDS011;5458;51.496;7.334;2023-05-09T14:04:02;3.15;;;2.00;;
10811;SDS011;5458;51.496;7.334;2023-05-09T14:06:28;3.03;;;2.50;;
10811;SDS011;5458;51.496;7.334;2023-05-09T14:08:54;3.28;;;2.63;;
10811;SDS011;5458;51.496;7.334;2023-05-09T14:11:20;3.28;;;2.78;;
10811;SDS011;5458;51.496;7.334;2023-05-09T14:13:46;3.40;;;2.65;;
10811;SDS011;5458;51.496;7.334;2023-05-09T14:16:12;2.60;;;2.40;;
10811;SDS011;5458;51.496;7.334;2023-05-09T14:18:37;2.88;;;2.65;;
10811;SDS011;5458;51.496;7.334;2023-05-09T14:21:03;2.55;;;1.83;;
10811;SDS011;5458;51.496;7.334;2023-05-09T14:23:30;2.58;;;2.38;;
10811;SDS011;5458;51.496;7.334;2023-05-09T14:25:56;2.58;;;2.30;;
10811;SDS011;5458;51.496;7.334;2023-05-09T14:28:22;2.70;;;2.50;;
10811;SDS011;5458;51.496;7.334;2023-05-09T14:30:48;4.72;;;3.90;;
10811;SDS011;5458;51.496;7.334;2023-05-09T14:33:14;5.25;;;4.50;;
10811;SDS011;5458;51.496;7.334;2023-05-09T14:35:39;6.28;;;5.68;;
10811;SDS011;5458;51.496;7.334;2023-05-09T14:38:05;6.47;;;5.88;;
10811;SDS011;5458;51.496;7.334;2023-05-09T14:40:31;5.95;;;5.40;;
10811;SDS011;5458;51.496;7.334;2023-05-09T14:42:57;7.75;;;6.35;;
10811;SDS011;5458;51.496;7.334;2023-05-09T14:45:25;7.35;;;6.65;;
10811;SDS011;5458;51.496;7.334;2023-05-09T14:47:51;7.18;;;6.47;;
10811;SDS011;5458;51.496;7.334;2023-05-09T14:50:17;9.18;;;7.50;;
10811;SDS011;5458;51.496;7.334;2023-05-09T14:52:44;8.48;;;7.57;;
10811;SDS011;5458;51.496;7.334;2023-05-09T14:55:09;8.60;;;7.80;;
10811;SDS011;5458;51.496;7.334;2023-05-09T14:57:35;8.20;;;7.40;;
10811;SDS011;5458;51.496;7.334;2023-05-09T15:00:01;8.52;;;7.82;;
10811;SDS011;5458;51.496;7.334;2023-05-09T15:02:28;9.50;;;7.82;;
10811;SDS011;5458;51.496;7.334;2023-05-09T15:04:53;11.55;;;8.25;;
10811;SDS011;5458;51.496;7.334;2023-05-09T15:07:20;7.55;;;6.85;;
10811;SDS011;5458;51.496;7.334;2023-05-09T15:09:45;7.15;;;6.00;;
10811;SDS011;5458;51.496;7.334;2023-05-09T15:12:11;7.13;;;6.45;;
10811;SDS011;5458;51.496;7.334;2023-05-09T15:14:36;12.15;;;7.10;;
10811;SDS011;5458;51.496;7.334;2023-05-09T15:17:03;7.78;;;7.03;;
10811;SDS011;5458;51.496;7.334;2023-05-09T15:19:29;7.60;;;6.82;;
10811;SDS011;5458;51.496;7.334;2023-05-09T15:21:56;8.30;;;7.03;;
10811;SDS011;5458;51.496;7.334;2023-05-09T15:24:22;8.90;;;7.60;;
10811;SDS011;5458;51.496;7.334;2023-05-09T15:26:48;10.15;;;7.70;;
10811;SDS011;5458;51.496;7.334;2023-05-09T15:29:14;10.25;;;7.82;;
10811;SDS011;5458;51.496;7.334;2023-05-09T15:31:39;12.88;;;9.00;;
10811;SDS011;5458;51.496;7.334;2023-05-09T15:34:05;8.50;;;7.60;;